createdAt,value
2023-04-18T00:01:10.987Z,11.07
2023-04-18T00:03:39.024Z,10.88
2023-04-18T00:06:05.854Z,10.27
2023-04-18T00:08:33.475Z,12.90
2023-04-18T00:10:59.997Z,11.02
2023-04-18T00:13:28.418Z,9.82
2023-04-18T00:15:55.036Z,9.90
2023-04-18T00:18:22.105Z,11.63
2023-04-18T00:20:48.634Z,12.40
2023-04-18T00:23:15.236Z,10.90
2023-04-18T00:25:41.748Z,13.27
2023-04-18T00:28:08.278Z,11.75
2023-04-18T00:30:34.822Z,9.90
2023-04-18T00:33:04.433Z,11.35
2023-04-18T00:35:32.432Z,11.25
2023-04-18T00:38:00.091Z,12.32
2023-04-18T00:40:26.541Z,10.88
2023-04-18T00:42:53.051Z,11.07
2023-04-18T00:45:19.586Z,10.15
2023-04-18T00:47:46.197Z,10.82
2023-04-18T00:50:13.485Z,9.65
2023-04-18T00:52:41.668Z,11.23
2023-04-18T00:57:35.876Z,10.80
2023-04-18T01:00:08.642Z,9.15
2023-04-18T01:02:35.792Z,10.02
2023-04-18T01:05:03.404Z,9.60
2023-04-18T01:09:57.580Z,9.02
2023-04-18T01:12:24.044Z,9.73
2023-04-18T01:14:50.661Z,8.68
2023-04-18T01:17:17.492Z,9.65
2023-04-18T01:19:44.471Z,10.23
2023-04-18T01:22:13.314Z,10.35
2023-04-18T01:24:41.079Z,9.38
2023-04-18T01:27:11.720Z,12.50
2023-04-18T01:29:38.998Z,14.30
2023-04-18T01:32:06.042Z,10.60
2023-04-18T01:34:32.563Z,10.15
2023-04-18T01:36:59.419Z,9.95
2023-04-18T01:39:25.894Z,9.95
2023-04-18T01:41:52.493Z,9.15
2023-04-18T01:44:19.035Z,9.65
2023-04-18T01:46:46.027Z,10.02
2023-04-18T01:49:12.873Z,11.13
2023-04-18T01:51:42.131Z,8.60
2023-04-18T01:56:35.012Z,11.93
2023-04-18T01:59:02.071Z,10.85
2023-04-18T02:01:28.557Z,8.73
2023-04-18T02:03:55.259Z,8.82
2023-04-18T02:06:21.887Z,9.13
2023-04-18T02:08:48.334Z,10.10
2023-04-18T02:11:14.854Z,9.65
2023-04-18T02:13:41.279Z,11.32
2023-04-18T02:16:11.830Z,10.13
2023-04-18T02:18:40.118Z,10.32
2023-04-18T02:21:07.213Z,9.20
2023-04-18T02:23:33.670Z,10.75
2023-04-18T02:26:00.243Z,11.38
2023-04-18T02:28:26.713Z,9.20
2023-04-18T02:33:20.728Z,10.13
2023-04-18T02:35:47.386Z,9.52
2023-04-18T02:38:15.780Z,9.80
2023-04-18T02:40:42.515Z,8.68
2023-04-18T02:43:08.997Z,10.40
2023-04-18T02:45:35.611Z,9.75
2023-04-18T02:48:02.433Z,10.02
2023-04-18T02:50:29.506Z,9.88
2023-04-18T02:52:57.345Z,9.27
2023-04-18T02:55:30.280Z,10.00
2023-04-18T02:57:59.326Z,9.23
2023-04-18T03:00:25.868Z,8.77
2023-04-18T03:02:55.518Z,11.80
2023-04-18T03:05:39.889Z,8.32
2023-04-18T03:08:06.706Z,8.93
2023-04-18T03:10:34.979Z,10.00
2023-04-18T03:13:02.175Z,8.80
2023-04-18T03:15:31.001Z,8.63
2023-04-18T03:17:57.971Z,11.38
2023-04-18T03:20:26.356Z,8.98
2023-04-18T03:22:53.136Z,12.10
2023-04-18T03:25:23.724Z,8.00
2023-04-18T03:27:52.378Z,9.02
2023-04-18T03:30:21.083Z,9.25
2023-04-18T03:32:53.839Z,9.82
2023-04-18T03:35:20.805Z,9.93
2023-04-18T03:37:47.511Z,8.75
2023-04-18T03:40:21.837Z,9.95
2023-04-18T03:42:50.380Z,10.98
2023-04-18T03:45:17.019Z,10.23
2023-04-18T03:47:46.135Z,9.52
2023-04-18T03:50:12.767Z,9.07
2023-04-18T03:52:40.940Z,12.15
2023-04-18T03:55:07.719Z,11.45
2023-04-18T03:57:34.230Z,10.20
2023-04-18T04:00:05.143Z,8.57
2023-04-18T04:02:42.233Z,9.63
2023-04-18T04:05:11.487Z,8.95
2023-04-18T04:07:38.303Z,9.65
2023-04-18T04:10:05.936Z,10.57
2023-04-18T04:12:32.407Z,8.90
2023-04-18T04:14:59.120Z,8.63
2023-04-18T04:17:25.896Z,9.45
2023-04-18T04:19:52.816Z,9.80
2023-04-18T04:22:20.893Z,9.30
2023-04-18T04:24:47.986Z,8.18
2023-04-18T04:27:18.893Z,8.88
2023-04-18T04:29:45.974Z,9.63
2023-04-18T04:32:13.558Z,11.80
2023-04-18T04:34:41.734Z,10.27
2023-04-18T04:37:10.609Z,10.60
2023-04-18T04:39:47.180Z,10.13
2023-04-18T04:42:30.591Z,9.45
2023-04-18T04:45:04.985Z,9.05
2023-04-18T04:47:31.568Z,10.63
2023-04-18T04:49:58.392Z,9.15
2023-04-18T04:52:24.915Z,9.85
2023-04-18T04:54:51.802Z,9.32
2023-04-18T04:57:20.092Z,11.13
2023-04-18T04:59:47.020Z,10.27
2023-04-18T05:02:13.778Z,10.63
2023-04-18T05:04:40.956Z,14.73
2023-04-18T05:07:07.602Z,11.70
2023-04-18T05:09:34.143Z,18.67
2023-04-18T05:12:01.496Z,11.55
2023-04-18T05:14:28.132Z,16.75
2023-04-18T05:16:55.692Z,12.10
2023-04-18T05:19:22.832Z,15.70
2023-04-18T05:21:49.265Z,12.90
2023-04-18T05:24:16.133Z,25.10
2023-04-18T05:26:43.149Z,11.80
2023-04-18T05:29:09.703Z,12.07
2023-04-18T05:31:36.698Z,14.23
2023-04-18T05:34:03.266Z,10.05
2023-04-18T05:36:29.727Z,15.07
2023-04-18T05:38:56.163Z,11.90
2023-04-18T05:41:23.073Z,15.15
2023-04-18T05:43:58.092Z,10.60
2023-04-18T05:46:31.888Z,11.20
2023-04-18T05:48:58.421Z,10.70
2023-04-18T05:51:24.923Z,9.65
2023-04-18T05:53:51.447Z,13.45
2023-04-18T05:56:18.035Z,10.35
2023-04-18T05:58:46.664Z,10.27
2023-04-18T06:01:18.541Z,10.98
2023-04-18T06:03:45.415Z,11.27
2023-04-18T06:06:12.072Z,10.95
2023-04-18T06:08:38.881Z,9.30
2023-04-18T06:11:05.621Z,10.15
2023-04-18T06:13:32.432Z,10.30
2023-04-18T06:16:00.252Z,10.57
2023-04-18T06:18:26.880Z,10.27
2023-04-18T06:20:53.393Z,11.13
2023-04-18T06:23:19.840Z,9.88
2023-04-18T06:25:46.358Z,10.38
2023-04-18T06:28:12.759Z,9.75
2023-04-18T06:30:39.307Z,8.98
2023-04-18T06:33:05.940Z,9.95
2023-04-18T06:35:32.512Z,8.88
2023-04-18T06:37:59.002Z,11.30
2023-04-18T06:40:25.428Z,10.02
2023-04-18T06:42:51.943Z,9.10
2023-04-18T06:45:18.447Z,21.27
2023-04-18T06:47:45.361Z,12.07
2023-04-18T06:50:11.834Z,9.45
2023-04-18T06:52:40.940Z,20.98
2023-04-18T06:55:07.772Z,11.77
2023-04-18T06:57:34.384Z,19.48
2023-04-18T07:00:00.918Z,11.80
2023-04-18T07:02:27.479Z,10.13
2023-04-18T07:04:53.989Z,9.20
2023-04-18T07:07:20.513Z,7.60
2023-04-18T07:09:46.944Z,8.88
2023-04-18T07:12:13.624Z,7.45
2023-04-18T07:14:40.736Z,7.45
2023-04-18T07:17:07.500Z,7.68
2023-04-18T07:19:34.191Z,7.57
2023-04-18T07:22:00.770Z,6.93
2023-04-18T07:24:27.208Z,8.05
2023-04-18T07:26:55.034Z,6.38
2023-04-18T07:29:21.829Z,7.65
2023-04-18T07:31:48.826Z,7.70
2023-04-18T07:34:15.601Z,9.00
2023-04-18T07:36:45.278Z,6.75
2023-04-18T07:39:11.855Z,6.72
2023-04-18T07:41:38.270Z,9.93
2023-04-18T07:44:04.860Z,13.93
2023-04-18T07:46:32.512Z,5.97
2023-04-18T07:48:59.472Z,6.50
2023-04-18T07:51:31.255Z,7.55
2023-04-18T07:53:58.646Z,5.90
2023-04-18T07:56:25.864Z,5.75
2023-04-18T07:58:52.487Z,5.93
2023-04-18T08:01:20.966Z,6.20
2023-04-18T08:03:50.636Z,6.57
2023-04-18T08:06:17.782Z,6.22
2023-04-18T08:08:44.403Z,6.22
2023-04-18T08:11:10.856Z,5.30
2023-04-18T08:13:37.373Z,5.13
2023-04-18T08:16:03.956Z,5.28
2023-04-18T08:18:30.520Z,5.97
2023-04-18T08:20:57.124Z,5.03
2023-04-18T08:23:23.969Z,4.68
2023-04-18T08:25:50.966Z,6.07
2023-04-18T08:28:17.481Z,5.15
2023-04-18T08:30:44.091Z,5.05
2023-04-18T08:33:10.717Z,4.30
2023-04-18T08:35:37.182Z,4.75
2023-04-18T08:38:03.651Z,4.13
2023-04-18T08:40:30.414Z,5.18
2023-04-18T08:42:57.277Z,5.13
2023-04-18T08:45:24.259Z,5.03
2023-04-18T08:47:51.323Z,4.38
2023-04-18T08:52:48.121Z,4.65
2023-04-18T08:55:15.819Z,4.05
2023-04-18T08:57:42.577Z,4.55
2023-04-18T09:00:10.425Z,3.47
2023-04-18T09:02:46.965Z,3.35
2023-04-18T09:05:21.221Z,4.22
2023-04-18T09:07:48.254Z,3.25
2023-04-18T09:12:49.545Z,4.65
2023-04-18T09:15:17.331Z,3.58
2023-04-18T09:17:51.317Z,4.35
2023-04-18T09:20:26.854Z,3.70
2023-04-18T09:22:57.684Z,4.47
2023-04-18T09:25:27.258Z,4.38
2023-04-18T09:27:53.977Z,3.47
2023-04-18T09:30:30.496Z,4.03
2023-04-18T09:32:58.158Z,3.50
2023-04-18T09:35:25.610Z,4.75
2023-04-18T09:37:52.052Z,3.42
2023-04-18T09:40:19.220Z,4.10
2023-04-18T09:45:13.156Z,3.95
2023-04-18T09:47:39.841Z,3.25
2023-04-18T09:50:07.708Z,4.57
2023-04-18T09:52:35.962Z,4.40
2023-04-18T09:55:03.397Z,5.72
2023-04-18T09:57:30.943Z,5.97
2023-04-18T10:00:24.535Z,11.32
2023-04-18T10:02:52.442Z,10.27
2023-04-18T10:05:21.152Z,12.45
2023-04-18T10:07:49.115Z,13.50
2023-04-18T10:10:15.851Z,16.23
2023-04-18T10:12:42.678Z,16.50
2023-04-18T10:15:10.351Z,19.60
2023-04-18T10:17:56.214Z,20.83
2023-04-18T10:20:30.355Z,20.20
2023-04-18T10:22:57.286Z,20.80
2023-04-18T10:25:39.100Z,17.83
2023-04-18T10:28:06.901Z,18.48
2023-04-18T10:30:54.070Z,17.30
2023-04-18T10:33:31.059Z,16.05
2023-04-18T10:35:58.825Z,16.25
2023-04-18T10:38:25.509Z,14.68
2023-04-18T10:40:51.994Z,14.75
2023-04-18T10:43:18.445Z,13.93
2023-04-18T10:45:44.958Z,13.23
2023-04-18T10:48:29.935Z,15.63
2023-04-18T10:51:16.246Z,12.98
2023-04-18T10:53:52.953Z,12.80
2023-04-18T10:56:19.728Z,12.73
2023-04-18T10:58:50.220Z,12.18
2023-04-18T11:01:22.235Z,11.65
2023-04-18T11:03:48.870Z,9.52
2023-04-18T11:06:15.629Z,10.52
2023-04-18T11:08:42.472Z,10.73
2023-04-18T11:11:11.214Z,9.88
2023-04-18T11:13:37.892Z,10.90
2023-04-18T11:16:04.569Z,10.38
2023-04-18T11:18:41.411Z,9.63
2023-04-18T11:21:07.975Z,10.77
2023-04-18T11:23:34.525Z,9.88
2023-04-18T11:26:01.072Z,9.60
2023-04-18T11:28:28.505Z,9.07
2023-04-18T11:30:57.451Z,10.95
2023-04-18T11:33:27.253Z,19.63
2023-04-18T11:35:56.740Z,9.07
2023-04-18T11:38:27.823Z,8.93
2023-04-18T11:40:54.364Z,11.07
2023-04-18T11:43:22.049Z,9.23
2023-04-18T11:45:56.452Z,13.13
2023-04-18T11:48:23.247Z,10.98
2023-04-18T11:50:50.052Z,10.35
2023-04-18T11:53:31.339Z,9.98
2023-04-18T11:55:57.844Z,9.60
2023-04-18T11:58:30.111Z,10.32
2023-04-18T12:00:56.568Z,9.35
2023-04-18T12:03:24.794Z,9.30
2023-04-18T12:05:58.732Z,9.05
2023-04-18T12:08:25.440Z,9.02
2023-04-18T12:10:52.657Z,9.23
2023-04-18T12:13:19.598Z,9.07
2023-04-18T12:15:46.558Z,8.85
2023-04-18T12:18:13.608Z,8.52
2023-04-18T12:20:50.280Z,7.93
2023-04-18T12:23:34.298Z,10.32
2023-04-18T12:26:05.019Z,8.40
2023-04-18T12:28:32.101Z,7.97
2023-04-18T12:30:59.034Z,9.00
2023-04-18T12:33:26.251Z,9.60
2023-04-18T12:35:52.993Z,8.63
2023-04-18T12:38:20.774Z,9.30
2023-04-18T12:40:47.336Z,9.15
2023-04-18T12:43:13.807Z,8.05
2023-04-18T12:45:40.267Z,7.88
2023-04-18T12:48:07.115Z,9.38
2023-04-18T12:50:33.786Z,8.18
2023-04-18T12:53:00.804Z,9.70
2023-04-18T12:55:28.006Z,7.88
2023-04-18T12:57:54.858Z,10.45
2023-04-18T13:00:23.463Z,7.78
2023-04-18T13:02:50.819Z,8.55
2023-04-18T13:05:18.062Z,6.97
2023-04-18T13:07:44.699Z,8.68
2023-04-18T13:10:14.278Z,7.43
2023-04-18T13:12:41.090Z,6.57
2023-04-18T13:15:08.279Z,8.48
2023-04-18T13:17:36.904Z,7.22
2023-04-18T13:20:06.767Z,7.15
2023-04-18T13:22:33.839Z,6.82
2023-04-18T13:25:00.327Z,8.63
2023-04-18T13:27:26.900Z,8.02
2023-04-18T13:29:53.481Z,7.10
2023-04-18T13:32:20.093Z,6.82
2023-04-18T13:34:47.308Z,7.50
2023-04-18T13:37:13.956Z,8.38
2023-04-18T13:39:40.816Z,7.32
2023-04-18T13:42:07.634Z,6.75
2023-04-18T13:44:35.578Z,7.80
2023-04-18T13:47:02.848Z,6.93
2023-04-18T13:49:29.318Z,7.40
2023-04-18T13:51:58.874Z,6.75
2023-04-18T13:54:26.635Z,8.90
2023-04-18T13:57:02.279Z,6.50
2023-04-18T13:59:31.237Z,7.38
2023-04-18T14:01:57.777Z,8.13
2023-04-18T14:04:24.715Z,7.97
2023-04-18T14:06:51.469Z,7.97
2023-04-18T14:09:18.039Z,8.02
2023-04-18T14:11:45.003Z,7.95
2023-04-18T14:14:11.431Z,8.02
2023-04-18T14:16:37.917Z,8.20
2023-04-18T14:19:04.696Z,7.72
2023-04-18T14:21:31.586Z,7.30
2023-04-18T14:23:58.125Z,7.80
2023-04-18T14:26:24.701Z,7.35
2023-04-18T14:28:51.297Z,7.97
2023-04-18T14:31:17.802Z,8.48
2023-04-18T14:33:44.829Z,7.88
2023-04-18T14:36:11.367Z,6.50
2023-04-18T14:38:37.886Z,6.50
2023-04-18T14:41:04.604Z,7.28
2023-04-18T14:43:31.111Z,6.97
2023-04-18T14:45:59.020Z,7.45
2023-04-18T14:48:26.349Z,7.78
2023-04-18T14:50:56.554Z,7.82
2023-04-18T14:53:23.399Z,6.03
2023-04-18T14:55:50.042Z,6.63
2023-04-18T14:58:16.527Z,6.18
2023-04-18T15:00:42.954Z,6.30
2023-04-18T15:03:11.207Z,6.90
2023-04-18T15:05:42.840Z,7.00
2023-04-18T15:08:10.912Z,7.80
2023-04-18T15:10:37.923Z,6.95
2023-04-18T15:13:06.847Z,6.70
2023-04-18T15:15:37.710Z,6.18
2023-04-18T15:18:04.503Z,6.90
2023-04-18T15:20:31.138Z,7.18
2023-04-18T15:22:57.616Z,6.78
2023-04-18T15:25:26.052Z,6.50
2023-04-18T15:27:52.890Z,6.25
2023-04-18T15:30:19.561Z,7.10
2023-04-18T15:32:46.102Z,7.25
2023-04-18T15:35:12.924Z,7.05
2023-04-18T15:37:39.523Z,6.28
2023-04-18T15:40:09.192Z,6.78
2023-04-18T15:42:35.709Z,6.40
2023-04-18T15:45:02.150Z,7.35
2023-04-18T15:47:28.673Z,6.85
2023-04-18T15:49:55.188Z,6.90
2023-04-18T15:52:21.976Z,7.35
2023-04-18T15:54:48.684Z,7.38
2023-04-18T15:57:15.741Z,8.20
2023-04-18T15:59:42.194Z,8.43
2023-04-18T16:02:09.135Z,10.10
2023-04-18T16:04:35.747Z,8.38
2023-04-18T16:07:02.946Z,8.25
2023-04-18T16:09:29.810Z,8.50
2023-04-18T16:11:57.477Z,8.35
2023-04-18T16:14:23.996Z,9.00
2023-04-18T16:16:50.490Z,7.82
2023-04-18T16:19:16.994Z,8.90
2023-04-18T16:21:43.524Z,8.95
2023-04-18T16:24:10.133Z,6.50
2023-04-18T16:26:36.644Z,8.18
2023-04-18T16:29:03.258Z,8.02
2023-04-18T16:31:29.812Z,7.20
2023-04-18T16:33:56.466Z,6.90
2023-04-18T16:36:22.949Z,7.60
2023-04-18T16:38:49.416Z,6.55
2023-04-18T16:41:16.117Z,8.18
2023-04-18T16:43:42.635Z,6.45
2023-04-18T16:46:09.167Z,7.93
2023-04-18T16:48:37.943Z,7.32
2023-04-18T16:51:04.918Z,7.35
2023-04-18T16:53:31.399Z,6.70
2023-04-18T16:55:59.103Z,8.35
2023-04-18T16:58:26.022Z,7.00
2023-04-18T17:00:52.819Z,7.15
2023-04-18T17:03:19.444Z,6.45
2023-04-18T17:05:46.491Z,6.57
2023-04-18T17:08:12.911Z,7.28
2023-04-18T17:10:39.437Z,7.00
2023-04-18T17:13:05.893Z,6.82
2023-04-18T17:15:32.363Z,6.78
2023-04-18T17:18:01.081Z,7.03
2023-04-18T17:20:28.341Z,7.07
2023-04-18T17:22:55.176Z,7.05
2023-04-18T17:25:21.628Z,6.22
2023-04-18T17:27:48.220Z,6.57
2023-04-18T17:30:14.753Z,7.82
2023-04-18T17:32:45.653Z,7.28
2023-04-18T17:35:12.622Z,7.00
2023-04-18T17:37:39.156Z,7.00
2023-04-18T17:40:09.469Z,6.32
2023-04-18T17:42:36.872Z,6.15
2023-04-18T17:45:04.088Z,6.03
2023-04-18T17:50:00.299Z,6.20
2023-04-18T17:52:28.464Z,6.05
2023-04-18T17:54:56.370Z,6.75
2023-04-18T17:57:23.534Z,6.78
2023-04-18T17:59:50.040Z,6.28
2023-04-18T18:02:16.699Z,5.15
2023-04-18T18:04:43.319Z,6.15
2023-04-18T18:07:10.010Z,6.22
2023-04-18T18:09:36.695Z,5.68
2023-04-18T18:12:03.514Z,5.65
2023-04-18T18:14:29.999Z,7.85
2023-04-18T18:16:56.535Z,6.00
2023-04-18T18:19:23.139Z,5.55
2023-04-18T18:21:49.661Z,6.22
2023-04-18T18:24:16.225Z,5.72
2023-04-18T18:26:42.860Z,6.05
2023-04-18T18:29:09.521Z,5.57
2023-04-18T18:31:36.191Z,7.50
2023-04-18T18:34:02.764Z,6.00
2023-04-18T18:36:29.250Z,5.60
2023-04-18T18:38:55.766Z,6.07
2023-04-18T18:41:22.641Z,5.85
2023-04-18T18:43:49.464Z,6.03
2023-04-18T18:46:16.021Z,6.80
2023-04-18T18:48:42.575Z,5.05
2023-04-18T18:51:09.597Z,5.18
2023-04-18T18:53:37.235Z,5.47
2023-04-18T18:56:05.714Z,5.45
2023-04-18T18:58:32.299Z,6.72
2023-04-18T19:01:02.285Z,5.20
2023-04-18T19:03:29.150Z,5.30
2023-04-18T19:05:56.500Z,4.97
2023-04-18T19:08:22.994Z,6.50
2023-04-18T19:10:50.582Z,5.35
2023-04-18T19:13:19.072Z,5.20
2023-04-18T19:15:45.641Z,4.97
2023-04-18T19:18:12.473Z,5.50
2023-04-18T19:20:40.395Z,5.70
2023-04-18T19:23:07.090Z,5.60
2023-04-18T19:25:33.723Z,4.70
2023-04-18T19:28:00.327Z,5.18
2023-04-18T19:30:26.842Z,4.57
2023-04-18T19:32:53.392Z,5.88
2023-04-18T19:35:19.982Z,5.28
2023-04-18T19:37:46.757Z,5.72
2023-04-18T19:40:14.259Z,6.40
2023-04-18T19:42:41.107Z,5.43
2023-04-18T19:45:07.785Z,6.03
2023-04-18T19:47:34.406Z,5.10
2023-04-18T19:50:01.224Z,5.65
2023-04-18T19:52:27.723Z,4.85
2023-04-18T19:54:54.756Z,4.30
2023-04-18T19:57:21.719Z,4.70
2023-04-18T19:59:48.206Z,4.78
2023-04-18T20:02:14.743Z,4.88
2023-04-18T20:04:42.030Z,4.65
2023-04-18T20:09:35.348Z,4.65
2023-04-18T20:12:02.636Z,5.13
2023-04-18T20:14:29.390Z,5.15
2023-04-18T20:16:56.114Z,5.60
2023-04-18T20:19:25.667Z,5.18
2023-04-18T20:21:52.481Z,6.50
2023-04-18T20:24:21.066Z,6.65
2023-04-18T20:26:47.845Z,5.25
2023-04-18T20:29:14.574Z,5.28
2023-04-18T20:31:42.450Z,4.60
2023-04-18T20:34:09.856Z,6.60
2023-04-18T20:39:06.213Z,6.55
2023-04-18T20:41:34.680Z,5.90
2023-04-18T20:44:05.241Z,5.03
2023-04-18T20:46:32.406Z,7.72
2023-04-18T20:48:59.541Z,8.93
2023-04-18T20:51:26.882Z,8.18
2023-04-18T20:56:20.124Z,16.77
2023-04-18T20:58:47.116Z,7.00
2023-04-18T21:01:13.685Z,9.35
2023-04-18T21:03:40.392Z,5.65
2023-04-18T21:06:06.951Z,7.70
2023-04-18T21:08:35.134Z,5.45
2023-04-18T21:11:01.805Z,6.68
2023-04-18T21:13:28.325Z,5.90
2023-04-18T21:15:57.091Z,8.98
2023-04-18T21:18:23.856Z,6.22
2023-04-18T21:20:50.638Z,7.68
2023-04-18T21:23:17.184Z,5.50
2023-04-18T21:25:43.681Z,5.82
2023-04-18T21:28:10.239Z,4.93
2023-04-18T21:30:36.831Z,5.65
2023-04-18T21:33:03.762Z,5.25
2023-04-18T21:35:30.339Z,4.38
2023-04-18T21:37:56.921Z,5.57
2023-04-18T21:40:24.320Z,5.00
2023-04-18T21:45:20.294Z,5.50
2023-04-18T21:47:46.940Z,11.13
2023-04-18T21:50:13.649Z,8.88
2023-04-18T21:52:40.114Z,8.98
2023-04-18T21:55:06.807Z,7.85
2023-04-18T21:57:33.281Z,9.18
2023-04-18T21:59:59.786Z,6.85
2023-04-18T22:02:27.042Z,8.95
2023-04-18T22:04:53.609Z,8.30
2023-04-18T22:07:20.202Z,7.32
2023-04-18T22:09:46.721Z,8.82
2023-04-18T22:12:15.861Z,8.48
2023-04-18T22:14:44.969Z,6.18
2023-04-18T22:17:11.470Z,7.05
2023-04-18T22:19:37.937Z,6.72
2023-04-18T22:22:04.672Z,7.93
2023-04-18T22:24:31.093Z,7.03
2023-04-18T22:26:57.572Z,7.47
2023-04-18T22:29:24.078Z,8.05
2023-04-18T22:31:50.850Z,7.38
2023-04-18T22:34:17.683Z,7.05
2023-04-18T22:36:45.551Z,6.35
2023-04-18T22:39:12.264Z,6.78
2023-04-18T22:41:38.837Z,6.88
2023-04-18T22:44:05.653Z,6.85
2023-04-18T22:46:33.087Z,5.72
2023-04-18T22:48:59.667Z,6.60
2023-04-18T22:51:28.532Z,9.13
2023-04-18T22:53:55.955Z,6.30
2023-04-18T22:56:22.394Z,7.00
2023-04-18T22:58:48.864Z,6.53
2023-04-18T23:01:15.355Z,8.18
2023-04-18T23:03:41.972Z,6.75
2023-04-18T23:06:08.704Z,7.38
2023-04-18T23:08:35.175Z,7.30
2023-04-18T23:11:01.851Z,9.07
2023-04-18T23:13:28.281Z,11.02
2023-04-18T23:15:54.797Z,7.88
2023-04-18T23:18:22.454Z,7.47
2023-04-18T23:20:48.872Z,7.25
2023-04-18T23:23:15.390Z,8.02
2023-04-18T23:25:41.939Z,8.20
2023-04-18T23:28:08.934Z,7.18
2023-04-18T23:30:36.839Z,8.27
2023-04-18T23:33:03.446Z,6.88
2023-04-18T23:35:29.962Z,7.50
2023-04-18T23:37:57.172Z,6.95
2023-04-18T23:40:23.759Z,7.22
2023-04-18T23:42:50.274Z,6.30
2023-04-18T23:45:17.045Z,6.93
2023-04-18T23:47:43.634Z,7.07
2023-04-18T23:50:10.430Z,7.57
2023-04-18T23:52:38.523Z,9.10
2023-04-18T23:55:05.181Z,6.20
2023-04-18T23:57:31.900Z,7.47
2023-04-18T23:59:58.596Z,6.82
